createdAt,value
2022-10-19T00:00:20.304Z,24.80
2022-10-19T00:01:20.277Z,24.50
2022-10-19T00:02:20.314Z,29.60
2022-10-19T00:03:23.114Z,33.30
2022-10-19T00:04:20.238Z,25.80
2022-10-19T00:05:20.195Z,29.50
2022-10-19T00:06:20.339Z,32.50
2022-10-19T00:07:20.198Z,27.60
2022-10-19T00:08:20.147Z,26.70
2022-10-19T00:09:20.158Z,29.80
2022-10-19T00:10:20.130Z,26.60
2022-10-19T00:11:20.118Z,25.90
2022-10-19T00:12:20.232Z,26.10
2022-10-19T00:13:20.106Z,31.60
2022-10-19T00:14:20.069Z,23.50
2022-10-19T00:15:20.077Z,25.60
2022-10-19T00:16:20.075Z,26.40
2022-10-19T00:17:20.048Z,25.10
2022-10-19T00:18:20.152Z,23.70
2022-10-19T00:19:20.031Z,27.30
2022-10-19T00:20:19.989Z,27.80
2022-10-19T00:21:19.995Z,28.70
2022-10-19T00:22:19.971Z,26.30
2022-10-19T00:23:19.956Z,26.70
2022-10-19T00:24:20.089Z,27.80
2022-10-19T00:25:19.922Z,26.90
2022-10-19T00:26:19.922Z,28.30
2022-10-19T00:27:19.915Z,23.60
2022-10-19T00:28:19.882Z,25.10
2022-10-19T00:29:19.873Z,25.60
2022-10-19T00:30:19.976Z,23.50
2022-10-19T00:31:19.857Z,28.50
2022-10-19T00:32:19.824Z,24.00
2022-10-19T00:33:19.832Z,27.00
2022-10-19T00:34:19.817Z,26.40
2022-10-19T00:35:19.785Z,26.50
2022-10-19T00:36:19.817Z,30.10
2022-10-19T00:37:19.764Z,31.00
2022-10-19T00:38:19.759Z,34.60
2022-10-19T00:39:19.748Z,27.40
2022-10-19T00:40:19.715Z,32.10
2022-10-19T00:41:19.733Z,28.00
2022-10-19T00:42:19.806Z,26.60
2022-10-19T00:43:19.686Z,23.10
2022-10-19T00:44:19.678Z,24.40
2022-10-19T00:45:19.674Z,24.80
2022-10-19T00:46:19.639Z,24.50
2022-10-19T00:47:19.627Z,26.20
2022-10-19T00:48:19.734Z,27.70
2022-10-19T00:49:19.599Z,38.30
2022-10-19T00:50:19.594Z,40.10
2022-10-19T00:51:19.592Z,34.60
2022-10-19T00:52:19.568Z,27.40
2022-10-19T00:53:19.562Z,34.30
2022-10-19T00:54:19.640Z,35.80
2022-10-19T00:55:19.519Z,35.30
2022-10-19T00:56:19.514Z,39.20
2022-10-19T00:57:19.491Z,40.70
2022-10-19T00:58:19.494Z,42.20
2022-10-19T00:59:19.483Z,44.60
2022-10-19T01:00:19.480Z,47.50
2022-10-19T01:01:19.495Z,44.50
2022-10-19T01:02:19.422Z,54.90
2022-10-19T01:03:19.411Z,59.40
2022-10-19T01:04:19.415Z,52.20
2022-10-19T01:05:19.390Z,50.80
2022-10-19T01:06:19.505Z,49.80
2022-10-19T01:07:19.375Z,57.40
2022-10-19T01:08:19.342Z,48.70
2022-10-19T01:09:19.347Z,49.00
2022-10-19T01:10:19.323Z,58.90
2022-10-19T01:11:19.324Z,52.80
2022-10-19T01:12:19.428Z,55.40
2022-10-19T01:13:19.284Z,66.90
2022-10-19T01:14:19.290Z,53.20
2022-10-19T01:15:19.273Z,55.70
2022-10-19T01:16:19.235Z,43.70
2022-10-19T01:17:19.235Z,55.10
2022-10-19T01:18:19.330Z,55.00
2022-10-19T01:19:19.227Z,49.10
2022-10-19T01:20:19.186Z,50.50
2022-10-19T01:21:19.200Z,51.20
2022-10-19T01:22:19.158Z,52.00
2022-10-19T01:23:19.146Z,56.60
2022-10-19T01:24:19.261Z,48.00
2022-10-19T01:25:19.118Z,55.30
2022-10-19T01:26:19.131Z,45.20
2022-10-19T01:27:19.103Z,42.40
2022-10-19T01:28:19.089Z,52.10
2022-10-19T01:29:19.091Z,55.70
2022-10-19T01:30:19.088Z,49.80
2022-10-19T01:31:19.049Z,57.90
2022-10-19T01:32:19.056Z,56.60
2022-10-19T01:33:19.024Z,60.50
2022-10-19T01:34:18.991Z,65.50
2022-10-19T01:35:18.983Z,61.70
2022-10-19T01:36:19.093Z,247.00
2022-10-19T01:37:18.971Z,857.90
2022-10-19T01:38:18.953Z,803.40
2022-10-19T01:39:18.944Z,822.70
2022-10-19T01:40:18.913Z,848.70
2022-10-19T01:41:18.917Z,233.20
2022-10-19T01:42:19.003Z,39.60
2022-10-19T01:43:18.883Z,44.60
2022-10-19T01:44:18.880Z,52.00
2022-10-19T01:45:18.850Z,41.90
2022-10-19T01:46:18.851Z,44.20
2022-10-19T01:47:18.834Z,41.80
2022-10-19T01:48:18.834Z,45.70
2022-10-19T01:49:18.793Z,53.90
2022-10-19T01:50:18.788Z,52.20
2022-10-19T01:51:18.778Z,55.20
2022-10-19T01:52:18.763Z,57.10
2022-10-19T01:53:18.748Z,48.10
2022-10-19T01:54:22.704Z,50.40
2022-10-19T01:55:18.716Z,58.10
2022-10-19T01:56:18.708Z,51.80
2022-10-19T01:57:18.685Z,64.60
2022-10-19T01:58:18.689Z,52.50
2022-10-19T01:59:18.690Z,54.60
2022-10-19T02:00:18.675Z,63.40
2022-10-19T02:01:18.650Z,52.70
2022-10-19T02:02:18.616Z,37.80
2022-10-19T02:03:18.600Z,29.00
2022-10-19T02:04:18.606Z,38.50
2022-10-19T02:05:18.578Z,30.30
2022-10-19T02:06:18.689Z,33.60
2022-10-19T02:07:18.561Z,33.70
2022-10-19T02:08:18.530Z,47.80
2022-10-19T02:09:18.543Z,53.40
2022-10-19T02:10:18.505Z,51.50
2022-10-19T02:11:18.491Z,45.10
2022-10-19T02:12:18.523Z,53.90
2022-10-19T02:13:18.473Z,58.60
2022-10-19T02:14:18.464Z,56.60
2022-10-19T02:15:18.457Z,58.30
2022-10-19T02:16:18.420Z,54.90
2022-10-19T02:17:18.424Z,55.50
2022-10-19T02:18:18.429Z,46.50
2022-10-19T02:19:18.467Z,49.60
2022-10-19T02:20:18.386Z,55.60
2022-10-19T02:21:18.375Z,49.40
2022-10-19T02:22:18.342Z,797.00
2022-10-19T02:23:18.343Z,897.40
2022-10-19T02:24:18.367Z,822.50
2022-10-19T02:25:18.303Z,857.00
2022-10-19T02:26:18.297Z,817.40
2022-10-19T02:27:18.287Z,427.50
2022-10-19T02:28:18.315Z,31.70
2022-10-19T02:29:18.276Z,40.30
2022-10-19T02:30:18.345Z,46.90
2022-10-19T02:31:18.224Z,48.30
2022-10-19T02:32:18.229Z,52.10
2022-10-19T02:33:18.204Z,39.90
2022-10-19T02:34:18.190Z,44.40
2022-10-19T02:35:18.187Z,43.40
2022-10-19T02:36:18.285Z,46.10
2022-10-19T02:37:20.938Z,59.30
2022-10-19T02:38:19.141Z,46.30
2022-10-19T02:39:18.128Z,47.60
2022-10-19T02:40:18.097Z,40.70
2022-10-19T02:41:18.115Z,39.90
2022-10-19T02:42:18.179Z,37.90
2022-10-19T02:43:18.067Z,45.50
2022-10-19T02:44:18.053Z,45.50
2022-10-19T02:45:18.039Z,45.20
2022-10-19T02:46:18.049Z,35.70
2022-10-19T02:47:18.033Z,39.80
2022-10-19T02:48:18.109Z,38.30
2022-10-19T02:49:17.997Z,42.10
2022-10-19T02:50:17.970Z,44.10
2022-10-19T02:51:17.959Z,58.50
2022-10-19T02:52:17.955Z,61.20
2022-10-19T02:53:17.942Z,46.90
2022-10-19T02:54:17.930Z,47.60
2022-10-19T02:55:17.910Z,51.30
2022-10-19T02:56:17.895Z,53.50
2022-10-19T02:57:17.871Z,71.60
2022-10-19T02:58:17.865Z,52.90
2022-10-19T02:59:17.856Z,51.50
2022-10-19T03:00:17.942Z,43.70
2022-10-19T03:01:17.882Z,33.60
2022-10-19T03:02:17.803Z,37.70
2022-10-19T03:03:17.784Z,43.30
2022-10-19T03:04:17.785Z,47.80
2022-10-19T03:05:17.765Z,44.70
2022-10-19T03:06:17.875Z,53.50
2022-10-19T03:07:17.747Z,61.30
2022-10-19T03:08:17.719Z,58.60
2022-10-19T03:09:17.717Z,43.40
2022-10-19T03:10:17.694Z,42.10
2022-10-19T03:11:17.675Z,46.90
2022-10-19T03:12:17.699Z,46.40
2022-10-19T03:13:17.646Z,55.30
2022-10-19T03:14:17.657Z,47.10
2022-10-19T03:15:17.631Z,35.30
2022-10-19T03:16:17.606Z,39.70
2022-10-19T03:17:17.602Z,37.80
2022-10-19T03:18:17.617Z,44.70
2022-10-19T03:19:17.569Z,44.50
2022-10-19T03:20:17.571Z,43.80
2022-10-19T03:21:17.539Z,39.30
2022-10-19T03:22:17.542Z,38.90
2022-10-19T03:23:17.523Z,34.10
2022-10-19T03:24:17.619Z,40.10
2022-10-19T03:25:17.489Z,40.50
2022-10-19T03:26:17.492Z,33.90
2022-10-19T03:27:17.471Z,36.90
2022-10-19T03:28:17.448Z,39.20
2022-10-19T03:29:17.443Z,57.80
2022-10-19T03:30:17.456Z,49.30
2022-10-19T03:31:17.402Z,37.70
2022-10-19T03:32:17.407Z,40.70
2022-10-19T03:33:17.387Z,42.80
2022-10-19T03:34:17.395Z,41.70
2022-10-19T03:35:17.362Z,37.00
2022-10-19T03:36:17.451Z,40.60
2022-10-19T03:37:17.336Z,35.80
2022-10-19T03:38:17.314Z,39.50
2022-10-19T03:39:17.386Z,38.70
2022-10-19T03:40:17.297Z,39.70
2022-10-19T03:41:17.282Z,35.80
2022-10-19T03:42:17.392Z,40.40
2022-10-19T03:43:17.241Z,37.70
2022-10-19T03:44:17.256Z,36.80
2022-10-19T03:45:17.214Z,38.70
2022-10-19T03:46:17.226Z,33.40
2022-10-19T03:47:17.198Z,34.40
2022-10-19T03:48:17.238Z,34.00
2022-10-19T03:49:17.171Z,40.60
2022-10-19T03:50:17.155Z,54.30
2022-10-19T03:51:17.128Z,38.20
2022-10-19T03:52:17.141Z,33.00
2022-10-19T03:53:17.106Z,36.30
2022-10-19T03:54:17.143Z,39.40
2022-10-19T03:55:17.102Z,39.70
2022-10-19T03:56:17.071Z,38.00
2022-10-19T03:57:17.052Z,32.70
2022-10-19T03:58:17.060Z,36.20
2022-10-19T03:59:17.043Z,29.20
2022-10-19T04:00:17.038Z,35.60
2022-10-19T04:01:17.079Z,27.40
2022-10-19T04:02:16.988Z,32.10
2022-10-19T04:03:16.969Z,29.30
2022-10-19T04:04:16.974Z,33.10
2022-10-19T04:05:16.949Z,37.80
2022-10-19T04:06:19.700Z,36.20
2022-10-19T04:07:18.031Z,33.50
2022-10-19T04:08:16.912Z,29.90
2022-10-19T04:09:16.906Z,29.10
2022-10-19T04:10:16.908Z,38.20
2022-10-19T04:11:16.864Z,33.80
2022-10-19T04:12:16.895Z,35.60
2022-10-19T04:13:16.833Z,39.80
2022-10-19T04:14:26.748Z,38.00
2022-10-19T04:15:17.824Z,33.00
2022-10-19T04:16:16.792Z,32.10
2022-10-19T04:17:16.797Z,41.80
2022-10-19T04:18:16.883Z,35.30
2022-10-19T04:19:16.761Z,34.80
2022-10-19T04:20:16.757Z,35.90
2022-10-19T04:21:16.746Z,34.60
2022-10-19T04:22:16.746Z,34.50
2022-10-19T04:24:16.795Z,42.50
2022-10-19T04:25:16.680Z,38.70
2022-10-19T04:26:16.676Z,30.00
2022-10-19T04:27:16.647Z,27.00
2022-10-19T04:28:16.661Z,28.80
2022-10-19T04:29:16.649Z,31.70
2022-10-19T04:30:16.639Z,28.70
2022-10-19T04:31:16.586Z,34.90
2022-10-19T04:32:16.591Z,31.50
2022-10-19T04:33:16.580Z,30.20
2022-10-19T04:34:16.576Z,34.60
2022-10-19T04:35:16.550Z,30.10
2022-10-19T04:36:16.642Z,33.10
2022-10-19T04:37:16.520Z,25.90
2022-10-19T04:38:16.519Z,43.00
2022-10-19T04:39:16.489Z,31.80
2022-10-19T04:40:16.483Z,36.80
2022-10-19T04:41:16.471Z,25.60
2022-10-19T04:42:16.485Z,29.20
2022-10-19T04:43:16.435Z,32.00
2022-10-19T04:44:16.464Z,33.50
2022-10-19T04:45:16.400Z,29.40
2022-10-19T04:46:16.418Z,26.90
2022-10-19T04:47:16.389Z,30.90
2022-10-19T04:48:16.402Z,30.70
2022-10-19T04:49:19.434Z,31.00
2022-10-19T04:50:16.339Z,34.40
2022-10-19T04:51:16.322Z,30.80
2022-10-19T04:52:16.327Z,31.30
2022-10-19T04:53:16.316Z,32.10
2022-10-19T04:54:16.329Z,32.90
2022-10-19T04:55:16.277Z,28.50
2022-10-19T04:56:16.253Z,30.30
2022-10-19T04:57:16.248Z,31.40
2022-10-19T04:58:27.828Z,33.10
2022-10-19T05:02:49.259Z,22.60
2022-10-19T05:03:49.247Z,22.10
2022-10-19T05:04:49.217Z,23.80
2022-10-19T05:05:49.318Z,23.30
2022-10-19T05:06:49.180Z,21.40
2022-10-19T05:07:49.176Z,22.20
2022-10-19T05:08:49.157Z,23.90
2022-10-19T05:09:49.136Z,25.20
2022-10-19T05:10:49.149Z,25.00
2022-10-19T05:11:49.219Z,25.00
2022-10-19T05:12:49.117Z,22.90
2022-10-19T05:13:49.091Z,25.00
2022-10-19T05:14:49.079Z,28.70
2022-10-19T05:15:49.071Z,25.50
2022-10-19T05:16:49.047Z,27.40
2022-10-19T05:17:49.076Z,27.00
2022-10-19T05:18:49.046Z,26.90
2022-10-19T05:19:49.018Z,29.90
2022-10-19T05:20:49.022Z,29.50
2022-10-19T05:21:49.010Z,32.70
2022-10-19T05:22:48.964Z,28.20
2022-10-19T05:23:48.970Z,23.50
2022-10-19T05:24:48.982Z,27.20
2022-10-19T05:25:48.944Z,29.10
2022-10-19T05:26:48.936Z,31.10
2022-10-19T05:27:48.916Z,30.50
2022-10-19T05:28:48.956Z,835.40
2022-10-19T05:29:48.912Z,511.20
2022-10-19T05:30:49.145Z,372.30
2022-10-19T05:31:48.852Z,309.10
2022-10-19T05:32:48.855Z,22.30
2022-10-19T05:33:48.828Z,189.30
2022-10-19T05:34:48.816Z,528.20
2022-10-19T05:35:48.836Z,257.00
2022-10-19T05:36:48.792Z,22.10
2022-10-19T05:37:48.763Z,17.30
2022-10-19T05:38:48.787Z,19.60
2022-10-19T05:39:48.759Z,17.40
2022-10-19T05:40:52.946Z,24.90
2022-10-19T05:41:49.814Z,20.50
2022-10-19T05:42:48.706Z,19.70
2022-10-19T05:43:48.674Z,23.50
2022-10-19T05:44:48.689Z,21.60
2022-10-19T05:45:48.660Z,22.90
2022-10-19T05:46:48.645Z,21.60
2022-10-19T05:47:48.675Z,24.60
2022-10-19T05:48:48.626Z,26.80
2022-10-19T05:49:48.597Z,26.20
2022-10-19T05:50:48.618Z,24.00
2022-10-19T05:51:48.567Z,23.10
2022-10-19T05:52:48.571Z,25.80
2022-10-19T05:53:48.681Z,22.90
2022-10-19T05:54:48.538Z,22.00
2022-10-19T05:55:48.523Z,20.40
2022-10-19T05:56:48.533Z,22.80
2022-10-19T05:57:48.511Z,21.00
2022-10-19T05:58:48.479Z,21.40
2022-10-19T05:59:48.505Z,24.70
2022-10-19T06:00:48.453Z,23.00
2022-10-19T06:01:48.479Z,22.40
2022-10-19T06:02:48.439Z,22.30
2022-10-19T06:03:48.411Z,22.10
2022-10-19T06:04:48.425Z,25.80
2022-10-19T06:05:48.435Z,20.30
2022-10-19T06:06:48.362Z,20.20
2022-10-19T06:07:48.373Z,22.00
2022-10-19T06:08:48.351Z,25.00
2022-10-19T06:09:48.324Z,22.40
2022-10-19T06:10:48.341Z,20.40
2022-10-19T06:11:48.456Z,24.10
2022-10-19T06:12:48.293Z,23.90
2022-10-19T06:13:48.271Z,21.70
2022-10-19T06:14:48.275Z,20.80
2022-10-19T06:15:48.248Z,20.60
2022-10-19T06:16:48.238Z,24.00
2022-10-19T06:17:48.366Z,20.70
2022-10-19T06:18:48.216Z,21.10
2022-10-19T06:19:48.227Z,23.70
2022-10-19T06:20:48.332Z,22.60
2022-10-19T06:21:48.166Z,19.60
2022-10-19T06:22:48.166Z,24.00
2022-10-19T06:23:48.263Z,25.10
2022-10-19T06:24:48.139Z,32.60
2022-10-19T06:25:48.128Z,24.80
2022-10-19T06:26:48.110Z,26.40
2022-10-19T06:27:48.114Z,25.00
2022-10-19T06:28:48.076Z,24.10
2022-10-19T06:29:48.092Z,25.20
2022-10-19T06:30:48.108Z,24.60
2022-10-19T06:31:48.041Z,24.70
2022-10-19T06:32:48.040Z,22.60
2022-10-19T06:33:49.454Z,21.30
2022-10-19T06:34:48.824Z,25.60
2022-10-19T06:35:48.096Z,23.70
2022-10-19T06:36:47.985Z,23.60
2022-10-19T06:37:47.964Z,25.30
2022-10-19T06:38:47.971Z,19.50
2022-10-19T06:39:47.979Z,24.60
2022-10-19T06:40:47.891Z,19.40
2022-10-19T06:41:48.000Z,24.20
2022-10-19T06:42:47.895Z,20.80
2022-10-19T06:43:47.880Z,22.20
2022-10-19T06:44:47.846Z,20.10
2022-10-19T06:45:47.859Z,21.70
2022-10-19T06:46:47.850Z,19.20
2022-10-19T06:48:47.816Z,25.30
2022-10-19T06:49:47.809Z,25.60
2022-10-19T06:50:47.775Z,22.40
2022-10-19T06:51:47.778Z,23.00
2022-10-19T06:52:47.741Z,17.90
2022-10-19T06:53:48.940Z,20.60
2022-10-19T06:54:47.730Z,23.00
2022-10-19T06:55:47.748Z,24.20
2022-10-19T06:56:47.720Z,22.60
2022-10-19T06:57:47.716Z,19.50
2022-10-19T06:58:47.668Z,20.50
2022-10-19T06:59:50.170Z,22.50
2022-10-19T07:00:48.674Z,20.30
2022-10-19T07:01:47.649Z,18.30
2022-10-19T07:02:47.606Z,19.70
2022-10-19T07:03:47.611Z,21.60
2022-10-19T07:04:47.580Z,20.40
2022-10-19T07:05:47.608Z,21.80
2022-10-19T07:06:47.565Z,17.40
2022-10-19T07:07:47.571Z,18.70
2022-10-19T07:08:47.558Z,24.10
2022-10-19T07:09:47.540Z,19.70
2022-10-19T07:10:47.509Z,20.50
2022-10-19T07:11:47.636Z,18.60
2022-10-19T07:12:47.489Z,19.30
2022-10-19T07:13:47.470Z,22.90
2022-10-19T07:14:47.474Z,25.50
2022-10-19T07:15:47.442Z,20.40
2022-10-19T07:16:47.433Z,23.80
2022-10-19T07:17:47.535Z,23.80
2022-10-19T07:18:47.401Z,21.20
2022-10-19T07:19:47.402Z,17.10
2022-10-19T07:20:47.381Z,21.80
2022-10-19T07:21:47.363Z,22.10
2022-10-19T07:22:47.357Z,21.90
2022-10-19T07:23:47.491Z,20.70
2022-10-19T07:24:47.327Z,20.30
2022-10-19T07:25:47.324Z,21.50
2022-10-19T07:26:47.286Z,21.40
2022-10-19T07:27:47.297Z,20.90
2022-10-19T07:28:47.265Z,22.40
2022-10-19T07:29:47.364Z,21.90
2022-10-19T07:30:47.249Z,22.60
2022-10-19T07:31:47.240Z,20.80
2022-10-19T07:32:47.314Z,20.30
2022-10-19T07:33:47.207Z,20.20
2022-10-19T07:34:47.202Z,23.90
2022-10-19T07:35:47.294Z,23.10
2022-10-19T07:36:47.163Z,21.50
2022-10-19T07:37:47.160Z,25.20
2022-10-19T07:38:47.130Z,21.20
2022-10-19T07:39:47.132Z,23.80
2022-10-19T07:40:47.604Z,18.80
2022-10-19T07:41:47.119Z,20.80
2022-10-19T07:42:47.091Z,21.80
2022-10-19T07:43:47.076Z,21.40
2022-10-19T07:44:47.063Z,18.50
2022-10-19T07:45:47.076Z,21.90
2022-10-19T07:46:47.010Z,21.50
2022-10-19T07:47:47.131Z,23.10
2022-10-19T07:48:47.006Z,20.10
2022-10-19T07:49:47.008Z,20.70
2022-10-19T07:50:46.961Z,18.10
2022-10-19T07:51:46.975Z,19.40
2022-10-19T07:52:46.953Z,19.20
2022-10-19T07:53:46.945Z,19.30
2022-10-19T07:54:46.935Z,17.50
2022-10-19T07:55:46.908Z,22.60
2022-10-19T07:56:46.910Z,22.70
2022-10-19T07:57:47.136Z,18.60
2022-10-19T07:58:46.853Z,24.00
2022-10-19T07:59:46.894Z,20.00
2022-10-19T08:00:46.825Z,21.40
2022-10-19T08:01:46.867Z,19.50
2022-10-19T08:03:05.112Z,23.00
2022-10-19T08:05:00.217Z,20.90
2022-10-19T08:05:47.756Z,17.90
2022-10-19T08:06:46.747Z,20.50
2022-10-19T08:07:46.731Z,19.50
2022-10-19T08:08:46.788Z,20.10
2022-10-19T08:09:54.497Z,18.40
2022-10-19T08:10:47.727Z,15.70
2022-10-19T08:11:46.693Z,16.00
2022-10-19T08:12:46.658Z,21.80
2022-10-19T08:13:46.640Z,17.90
2022-10-19T08:14:46.664Z,15.20
2022-10-19T08:15:46.621Z,21.90
2022-10-19T08:16:46.751Z,15.60
2022-10-19T08:17:46.605Z,18.10
2022-10-19T08:18:46.583Z,18.00
2022-10-19T08:19:46.587Z,21.20
2022-10-19T08:20:46.547Z,20.80
2022-10-19T08:21:46.561Z,17.50
2022-10-19T08:22:46.646Z,17.30
2022-10-19T08:23:46.532Z,20.90
2022-10-19T08:24:46.517Z,20.40
2022-10-19T08:25:46.504Z,17.50
2022-10-19T08:26:46.483Z,18.40
2022-10-19T08:27:46.466Z,19.10
2022-10-19T08:28:46.553Z,22.40
2022-10-19T08:29:46.431Z,19.30
2022-10-19T08:30:46.438Z,18.40
2022-10-19T08:31:46.413Z,15.60
2022-10-19T08:32:46.397Z,20.80
2022-10-19T08:33:46.397Z,18.80
2022-10-19T08:34:46.376Z,21.20
2022-10-19T08:35:46.358Z,21.00
2022-10-19T08:36:46.358Z,16.30
2022-10-19T08:37:46.590Z,20.70
2022-10-19T08:38:46.327Z,18.60
2022-10-19T08:39:46.339Z,19.50
2022-10-19T08:40:46.296Z,18.10
2022-10-19T08:41:46.266Z,16.10
2022-10-19T08:42:46.262Z,16.20
2022-10-19T08:43:46.235Z,14.80
2022-10-19T08:44:46.235Z,19.30
2022-10-19T08:45:46.233Z,17.50
2022-10-19T08:46:46.223Z,17.40
2022-10-19T08:47:46.201Z,13.80
2022-10-19T08:48:46.161Z,13.70
2022-10-19T08:49:46.170Z,18.70
2022-10-19T08:50:46.164Z,12.90
2022-10-19T08:51:46.162Z,18.70
2022-10-19T08:52:46.258Z,16.40
2022-10-19T08:53:46.097Z,16.00
2022-10-19T08:55:46.081Z,15.50
2022-10-19T08:56:51.079Z,17.20
2022-10-19T08:57:47.183Z,12.80
2022-10-19T08:58:46.052Z,14.70
2022-10-19T08:59:46.037Z,13.30
2022-10-19T09:00:46.013Z,13.40
2022-10-19T09:01:46.003Z,14.40
2022-10-19T09:02:45.994Z,17.10
2022-10-19T09:04:01.303Z,14.80
2022-10-19T09:04:46.978Z,14.50
2022-10-19T09:05:45.957Z,16.70
2022-10-19T09:06:45.924Z,13.00
2022-10-19T09:07:45.919Z,14.40
2022-10-19T09:08:45.970Z,10.40
2022-10-19T09:10:45.866Z,11.10
2022-10-19T09:11:45.879Z,13.40
2022-10-19T09:12:45.872Z,14.40
2022-10-19T09:14:04.112Z,14.60
2022-10-19T09:14:46.951Z,14.50
2022-10-19T09:15:45.800Z,14.30
2022-10-19T09:16:45.814Z,13.70
2022-10-19T09:17:45.799Z,13.80
2022-10-19T09:18:45.788Z,13.00
2022-10-19T09:19:45.780Z,17.00
2022-10-19T09:20:45.770Z,17.10
2022-10-19T09:21:47.640Z,13.70
2022-10-19T09:22:45.754Z,12.30
2022-10-19T09:23:45.699Z,11.70
2022-10-19T09:24:45.699Z,15.60
2022-10-19T09:25:45.683Z,14.40
2022-10-19T09:26:45.680Z,15.60
2022-10-19T09:27:45.663Z,13.40
2022-10-19T09:28:45.636Z,16.30
2022-10-19T09:29:45.635Z,13.60
2022-10-19T09:30:45.613Z,13.00
2022-10-19T09:31:45.646Z,12.70
2022-10-19T09:32:45.702Z,11.50
2022-10-19T09:33:45.576Z,13.60
2022-10-19T09:34:45.543Z,10.80
2022-10-19T09:35:45.565Z,10.70
2022-10-19T09:36:50.616Z,12.40
2022-10-19T09:37:46.636Z,11.50
2022-10-19T09:38:45.498Z,11.40
2022-10-19T09:39:52.436Z,17.60
2022-10-19T09:40:46.466Z,11.40
2022-10-19T09:41:45.473Z,12.70
2022-10-19T09:42:45.468Z,14.50
2022-10-19T09:43:45.550Z,13.30
2022-10-19T09:44:45.449Z,14.30
2022-10-19T09:45:45.420Z,14.60
2022-10-19T09:47:45.390Z,11.90
2022-10-19T09:48:45.368Z,13.40
2022-10-19T09:49:45.417Z,12.40
2022-10-19T09:50:45.344Z,12.20
2022-10-19T09:51:45.319Z,13.30
2022-10-19T09:52:45.319Z,14.50
2022-10-19T09:53:45.313Z,13.70
2022-10-19T09:54:45.291Z,12.90
2022-10-19T09:55:45.332Z,10.50
2022-10-19T09:56:45.421Z,10.20
2022-10-19T09:57:45.273Z,12.90
2022-10-19T09:58:45.241Z,10.60
2022-10-19T09:59:45.235Z,9.00
2022-10-19T10:00:45.205Z,10.10
2022-10-19T10:01:45.241Z,13.40
2022-10-19T10:03:45.163Z,10.60
2022-10-19T10:04:45.156Z,11.50
2022-10-19T10:05:45.237Z,11.00
2022-10-19T10:06:45.106Z,9.50
2022-10-19T10:07:45.237Z,12.90
2022-10-19T10:08:45.167Z,12.80
2022-10-19T10:09:45.076Z,14.50
2022-10-19T10:10:45.099Z,11.80
2022-10-19T10:11:45.127Z,9.90
2022-10-19T10:12:45.050Z,9.40
2022-10-19T10:13:45.059Z,11.70
2022-10-19T10:14:45.029Z,11.90
2022-10-19T10:15:45.016Z,9.10
2022-10-19T10:16:44.993Z,9.10
2022-10-19T10:17:45.000Z,12.50
2022-10-19T10:18:44.942Z,10.40
2022-10-19T10:19:45.080Z,11.90
2022-10-19T10:20:44.991Z,13.10
2022-10-19T10:21:44.910Z,14.20
2022-10-19T10:22:44.903Z,13.00
2022-10-19T10:23:44.891Z,11.60
2022-10-19T10:24:44.874Z,14.70
2022-10-19T10:25:44.912Z,11.10
2022-10-19T10:26:44.840Z,12.10
2022-10-19T10:27:44.845Z,11.90
2022-10-19T10:28:44.820Z,12.00
2022-10-19T10:29:44.825Z,10.10
2022-10-19T10:30:44.804Z,14.10
2022-10-19T10:31:44.801Z,11.50
2022-10-19T10:32:47.279Z,10.50
2022-10-19T10:33:45.574Z,11.80
2022-10-19T10:34:50.616Z,9.60
2022-10-19T10:35:45.743Z,10.40
2022-10-19T10:36:44.714Z,10.10
2022-10-19T10:37:44.825Z,9.50
2022-10-19T10:38:44.687Z,11.10
2022-10-19T10:39:44.665Z,11.30
2022-10-19T10:40:44.670Z,11.00
2022-10-19T10:41:44.657Z,12.60
2022-10-19T10:42:44.636Z,9.50
2022-10-19T10:43:44.743Z,10.00
2022-10-19T10:44:44.611Z,10.70
2022-10-19T10:45:44.608Z,12.60
2022-10-19T10:46:44.567Z,13.10
2022-10-19T10:47:44.576Z,12.60
2022-10-19T10:48:44.555Z,9.80
2022-10-19T10:49:44.557Z,10.00
2022-10-19T10:50:44.551Z,8.00
2022-10-19T10:51:47.120Z,9.20
2022-10-19T10:52:44.513Z,10.20
2022-10-19T10:53:44.503Z,10.10
2022-10-19T10:54:44.452Z,11.20
2022-10-19T10:55:44.481Z,10.10
2022-10-19T10:56:44.435Z,12.10
2022-10-19T10:57:44.419Z,12.50
2022-10-19T10:58:44.414Z,10.10
2022-10-19T10:59:45.642Z,10.40
2022-10-19T11:00:44.377Z,9.70
2022-10-19T11:01:44.442Z,11.30
2022-10-19T11:02:44.375Z,12.90
2022-10-19T11:03:44.333Z,12.70
2022-10-19T11:04:47.381Z,11.40
2022-10-19T11:05:45.321Z,11.40
2022-10-19T11:06:44.789Z,8.20
2022-10-19T11:07:44.336Z,13.10
2022-10-19T11:08:44.339Z,11.90
2022-10-19T11:09:44.256Z,11.00
2022-10-19T11:10:44.249Z,9.70
2022-10-19T11:11:44.227Z,10.70
2022-10-19T11:12:44.258Z,11.50
2022-10-19T11:13:44.260Z,10.30
2022-10-19T11:14:46.937Z,11.80
2022-10-19T11:15:44.170Z,10.30
2022-10-19T11:16:44.190Z,9.90
2022-10-19T11:17:44.166Z,10.90
2022-10-19T11:18:44.162Z,13.10
2022-10-19T11:19:44.162Z,13.10
2022-10-19T11:20:44.112Z,18.10
2022-10-19T11:21:44.118Z,11.20
2022-10-19T11:22:44.117Z,11.10
2022-10-19T11:23:44.073Z,11.60
2022-10-19T11:24:46.462Z,13.20
2022-10-19T11:25:44.084Z,9.30
2022-10-19T11:26:44.027Z,10.90
2022-10-19T11:27:44.022Z,10.90
2022-10-19T11:28:43.993Z,11.30
2022-10-19T11:29:43.993Z,11.80
2022-10-19T11:30:46.251Z,7.60
2022-10-19T11:31:44.076Z,10.20
2022-10-19T11:32:46.036Z,10.40
2022-10-19T11:33:44.000Z,12.10
2022-10-19T11:34:43.922Z,10.00
2022-10-19T11:35:43.944Z,12.30
2022-10-19T11:36:43.916Z,10.30
2022-10-19T11:37:50.215Z,10.50
2022-10-19T11:38:44.871Z,10.60
2022-10-19T11:39:43.862Z,10.70
2022-10-19T11:40:54.284Z,9.50
2022-10-19T11:41:44.842Z,8.80
2022-10-19T11:42:43.827Z,12.50
2022-10-19T11:43:43.930Z,9.40
2022-10-19T11:44:43.792Z,9.60
2022-10-19T11:45:43.765Z,8.40
2022-10-19T11:46:43.763Z,9.40
2022-10-19T11:47:43.751Z,11.30
2022-10-19T11:48:44.014Z,11.10
2022-10-19T11:49:43.829Z,7.60
2022-10-19T11:50:46.751Z,10.00
2022-10-19T11:51:44.813Z,10.70
2022-10-19T11:52:43.692Z,11.40
2022-10-19T11:53:43.675Z,9.50
2022-10-19T11:54:43.663Z,13.20
2022-10-19T11:55:43.700Z,9.40
2022-10-19T11:57:01.674Z,12.10
2022-10-19T11:57:44.612Z,11.30
2022-10-19T11:58:43.624Z,11.10
2022-10-19T11:59:43.583Z,10.40
2022-10-19T12:00:43.586Z,11.00
2022-10-19T12:01:43.759Z,10.90
2022-10-19T12:02:43.535Z,9.30
2022-10-19T12:03:43.528Z,12.20
2022-10-19T12:04:43.522Z,10.80
2022-10-19T12:05:43.502Z,11.00
2022-10-19T12:06:43.485Z,11.20
2022-10-19T12:07:43.505Z,7.30
2022-10-19T12:08:43.523Z,10.20
2022-10-19T12:09:43.436Z,12.90
2022-10-19T12:10:43.447Z,12.20
2022-10-19T12:11:43.427Z,10.10
2022-10-19T12:12:43.411Z,12.60
2022-10-19T12:13:43.412Z,11.60
2022-10-19T12:14:43.368Z,15.00
2022-10-19T12:15:43.354Z,9.30
2022-10-19T12:16:43.344Z,10.80
2022-10-19T12:17:43.326Z,10.50
2022-10-19T12:18:43.334Z,10.10
2022-10-19T12:19:43.430Z,13.00
2022-10-19T12:20:43.292Z,8.90
2022-10-19T12:21:43.278Z,10.70
2022-10-19T12:22:43.285Z,11.40
2022-10-19T12:23:43.269Z,11.60
2022-10-19T12:24:43.258Z,9.80
2022-10-19T12:25:43.352Z,10.00
2022-10-19T12:26:43.223Z,11.00
2022-10-19T12:27:43.198Z,9.20
2022-10-19T12:28:43.178Z,12.10
2022-10-19T12:29:43.180Z,12.70
2022-10-19T12:30:43.168Z,10.60
2022-10-19T12:31:43.166Z,10.10
2022-10-19T12:32:43.149Z,9.80
2022-10-19T12:33:43.124Z,10.40
2022-10-19T12:34:43.099Z,8.90
2022-10-19T12:35:43.107Z,13.10
2022-10-19T12:36:43.075Z,12.00
2022-10-19T12:37:43.193Z,8.50
2022-10-19T12:38:45.965Z,11.30
2022-10-19T12:39:43.024Z,8.40
2022-10-19T12:40:43.014Z,13.60
2022-10-19T12:41:42.995Z,9.60
2022-10-19T12:42:42.989Z,9.30
2022-10-19T12:43:43.014Z,12.70
2022-10-19T12:44:42.964Z,8.90
2022-10-19T12:45:42.945Z,8.80
2022-10-19T12:46:42.962Z,8.70
2022-10-19T12:47:42.910Z,10.00
2022-10-19T12:48:42.919Z,8.90
2022-10-19T12:49:42.945Z,8.00
2022-10-19T12:50:42.917Z,10.90
2022-10-19T12:51:42.884Z,9.30
2022-10-19T12:52:42.859Z,9.20
2022-10-19T12:53:42.849Z,9.90
2022-10-19T12:54:42.825Z,9.10
2022-10-19T12:55:44.950Z,10.90
2022-10-19T12:56:42.815Z,12.20
2022-10-19T12:57:42.787Z,9.80
2022-10-19T12:58:46.795Z,12.00
2022-10-19T12:59:43.748Z,15.70
2022-10-19T13:00:42.852Z,10.40
2022-10-19T13:01:42.875Z,10.80
2022-10-19T13:02:42.767Z,10.10
2022-10-19T13:03:42.710Z,7.70